createdAt,value
2018-12-11T00:00:33.855Z,72.40
2018-12-11T00:03:04.583Z,70.65
2018-12-11T00:05:32.981Z,71.17
2018-12-11T00:08:03.725Z,71.69
2018-12-11T00:10:32.240Z,71.70
2018-12-11T00:13:00.693Z,71.59
2018-12-11T00:15:29.103Z,71.01
2018-12-11T00:17:57.636Z,71.06
2018-12-11T00:20:27.439Z,71.64
2018-12-11T00:22:56.093Z,71.45
2018-12-11T00:25:24.548Z,71.72
2018-12-11T00:27:52.982Z,72.02
2018-12-11T00:30:21.392Z,72.26
2018-12-11T00:32:49.816Z,71.94
2018-12-11T00:35:18.223Z,72.10
2018-12-11T00:37:46.629Z,72.32
2018-12-11T00:40:15.229Z,72.80
2018-12-11T00:42:43.669Z,72.54
2018-12-11T00:45:12.304Z,72.24
2018-12-11T00:47:40.752Z,72.06
2018-12-11T00:50:09.316Z,72.11
2018-12-11T00:52:37.788Z,71.88
2018-12-11T00:55:06.192Z,72.15
2018-12-11T00:57:34.622Z,72.57
2018-12-11T01:00:05.648Z,71.42
2018-12-11T01:02:34.079Z,71.91
2018-12-11T01:05:04.546Z,72.62
2018-12-11T01:07:32.966Z,72.16
2018-12-11T01:10:03.632Z,72.32
2018-12-11T01:12:32.061Z,72.39
2018-12-11T01:15:00.456Z,72.06
2018-12-11T01:17:28.883Z,72.64
2018-12-11T01:19:57.317Z,71.91
2018-12-11T01:22:25.799Z,72.94
2018-12-11T01:24:54.242Z,73.14
2018-12-11T01:27:22.724Z,73.52
2018-12-11T01:29:51.115Z,73.20
2018-12-11T01:32:19.557Z,73.29
2018-12-11T01:34:47.953Z,73.32
2018-12-11T01:37:16.389Z,73.47
2018-12-11T01:39:44.811Z,72.51
2018-12-11T01:42:13.266Z,72.93
2018-12-11T01:44:41.656Z,73.08
2018-12-11T01:47:10.103Z,73.92
2018-12-11T01:49:38.508Z,73.13
2018-12-11T01:52:06.952Z,73.13
2018-12-11T01:54:35.347Z,72.70
2018-12-11T01:57:05.148Z,73.14
2018-12-11T01:59:33.550Z,73.40
2018-12-11T02:02:04.480Z,72.86
2018-12-11T02:04:32.881Z,72.80
2018-12-11T02:07:03.657Z,73.29
2018-12-11T02:09:32.058Z,73.06
2018-12-11T02:12:00.480Z,73.36
2018-12-11T02:14:28.889Z,72.44
2018-12-11T02:16:57.316Z,73.15
2018-12-11T02:19:25.721Z,72.67
2018-12-11T02:21:54.137Z,72.68
2018-12-11T02:24:22.541Z,72.81
2018-12-11T02:26:51.088Z,72.70
2018-12-11T02:29:19.476Z,72.69
2018-12-11T02:31:47.894Z,72.46
2018-12-11T02:34:16.290Z,72.21
2018-12-11T02:36:44.727Z,72.23
2018-12-11T02:39:13.206Z,72.19
2018-12-11T02:41:41.809Z,72.85
2018-12-11T02:44:10.351Z,72.23
2018-12-11T02:46:38.773Z,72.41
2018-12-11T02:49:07.170Z,72.69
2018-12-11T02:51:35.631Z,72.38
2018-12-11T02:54:05.869Z,72.21
2018-12-11T02:56:34.317Z,71.89
2018-12-11T02:59:05.293Z,71.02
2018-12-11T03:01:33.729Z,71.92
2018-12-11T03:04:04.529Z,71.76
2018-12-11T03:06:32.980Z,72.02
2018-12-11T03:09:03.595Z,71.00
2018-12-11T03:11:32.017Z,71.17
2018-12-11T03:14:00.428Z,71.58
2018-12-11T03:16:28.862Z,71.36
2018-12-11T03:18:57.260Z,71.62
2018-12-11T03:21:25.696Z,71.58
2018-12-11T03:23:54.099Z,71.75
2018-12-11T03:26:22.510Z,71.38
2018-12-11T03:28:50.939Z,71.60
2018-12-11T03:31:19.345Z,71.82
2018-12-11T03:33:47.772Z,71.84
2018-12-11T03:36:16.165Z,71.33
2018-12-11T03:38:44.583Z,71.42
2018-12-11T03:41:13.016Z,70.40
2018-12-11T03:43:41.458Z,71.11
2018-12-11T03:46:09.902Z,70.65
2018-12-11T03:48:38.448Z,69.94
2018-12-11T03:51:06.898Z,70.08
2018-12-11T03:53:35.330Z,70.31
2018-12-11T03:56:05.131Z,70.03
2018-12-11T03:58:33.661Z,70.29
2018-12-11T04:01:04.562Z,70.71
2018-12-11T04:03:33.089Z,70.42
2018-12-11T04:06:03.680Z,70.48
2018-12-11T04:08:32.085Z,70.01
2018-12-11T04:11:00.572Z,70.29
2018-12-11T04:13:28.975Z,69.45
2018-12-11T04:15:57.373Z,70.04
2018-12-11T04:18:25.796Z,69.90
2018-12-11T04:20:54.219Z,70.33
2018-12-11T04:23:22.627Z,70.03
2018-12-11T04:25:51.057Z,69.96
2018-12-11T04:28:19.589Z,70.62
2018-12-11T04:30:48.151Z,70.58
2018-12-11T04:33:16.544Z,70.99
2018-12-11T04:35:45.005Z,71.38
2018-12-11T04:38:13.504Z,71.01
2018-12-11T04:40:42.004Z,71.18
2018-12-11T04:43:10.411Z,71.38
2018-12-11T04:45:38.833Z,70.54
2018-12-11T04:48:07.240Z,70.56
2018-12-11T04:50:35.667Z,70.12
2018-12-11T04:53:05.097Z,71.63
2018-12-11T04:55:33.612Z,70.84
2018-12-11T04:58:04.576Z,70.42
2018-12-11T05:00:33.004Z,70.36
2018-12-11T05:03:03.618Z,70.75
2018-12-11T05:05:32.025Z,70.44
2018-12-11T05:08:03.467Z,70.52
2018-12-11T05:10:31.895Z,70.88
2018-12-11T05:13:00.279Z,70.84
2018-12-11T05:15:28.707Z,70.40
2018-12-11T05:17:57.087Z,70.40
2018-12-11T05:20:25.495Z,71.02
2018-12-11T05:22:53.888Z,71.21
2018-12-11T05:25:22.290Z,70.84
2018-12-11T05:27:50.676Z,70.74
2018-12-11T05:30:19.085Z,71.44
2018-12-11T05:32:47.495Z,70.94
2018-12-11T05:35:15.904Z,71.01
2018-12-11T05:37:44.284Z,71.12
2018-12-11T05:40:12.683Z,71.57
2018-12-11T05:42:41.115Z,71.65
2018-12-11T05:45:09.531Z,70.72
2018-12-11T05:47:37.904Z,71.31
2018-12-11T05:50:06.954Z,70.75
2018-12-11T05:52:35.348Z,70.89
2018-12-11T05:55:06.016Z,71.33
2018-12-11T05:57:34.387Z,71.38
2018-12-11T06:00:08.088Z,70.87
2018-12-11T06:02:36.468Z,71.56
2018-12-11T06:05:05.837Z,71.58
2018-12-11T06:07:34.247Z,71.21
2018-12-11T06:10:03.615Z,71.40
2018-12-11T06:12:32.059Z,71.19
2018-12-11T06:15:00.441Z,71.06
2018-12-11T06:17:28.876Z,70.95
2018-12-11T06:19:57.259Z,70.86
2018-12-11T06:22:25.675Z,71.24
2018-12-11T06:24:54.067Z,71.90
2018-12-11T06:27:22.472Z,72.14
2018-12-11T06:29:50.859Z,72.52
2018-12-11T06:32:19.267Z,72.89
2018-12-11T06:34:47.635Z,73.22
2018-12-11T06:37:16.053Z,72.24
2018-12-11T06:39:44.432Z,71.41
2018-12-11T06:42:12.841Z,72.26
2018-12-11T06:44:41.240Z,71.42
2018-12-11T06:47:09.661Z,71.04
2018-12-11T06:49:38.040Z,71.41
2018-12-11T06:52:06.564Z,70.92
2018-12-11T06:54:34.940Z,70.72
2018-12-11T06:57:05.180Z,71.06
2018-12-11T06:59:33.560Z,70.77
2018-12-11T07:02:03.658Z,70.96
2018-12-11T07:04:32.045Z,73.88
2018-12-11T07:07:00.468Z,74.08
2018-12-11T07:09:28.845Z,75.25
2018-12-11T07:11:57.260Z,76.52
2018-12-11T07:14:25.642Z,77.02
2018-12-11T07:16:54.073Z,76.81
2018-12-11T07:19:22.545Z,77.57
2018-12-11T07:21:50.965Z,77.32
2018-12-11T07:24:19.352Z,76.48
2018-12-11T07:26:47.755Z,75.92
2018-12-11T07:29:16.150Z,75.59
2018-12-11T07:31:44.564Z,74.86
2018-12-11T07:34:12.940Z,74.13
2018-12-11T07:36:41.348Z,73.54
2018-12-11T07:39:09.743Z,73.50
2018-12-11T07:41:38.189Z,73.20
2018-12-11T07:44:06.604Z,72.87
2018-12-11T07:46:34.991Z,72.72
2018-12-11T07:49:05.825Z,75.56
2018-12-11T07:51:34.272Z,76.99
2018-12-11T07:54:04.649Z,76.75
2018-12-11T07:56:33.054Z,77.30
2018-12-11T07:59:03.718Z,77.39
2018-12-11T08:01:32.120Z,77.72
2018-12-11T08:04:00.546Z,77.68
2018-12-11T08:06:28.916Z,76.71
2018-12-11T08:08:57.336Z,76.84
2018-12-11T08:11:25.736Z,75.98
2018-12-11T08:13:54.136Z,75.84
2018-12-11T08:16:22.647Z,75.11
2018-12-11T08:18:51.573Z,75.25
2018-12-11T08:21:19.962Z,74.96
2018-12-11T08:23:48.371Z,74.22
2018-12-11T08:26:16.763Z,74.17
2018-12-11T08:28:45.188Z,73.82
2018-12-11T08:31:13.571Z,73.00
2018-12-11T08:33:42.143Z,72.49
2018-12-11T08:36:10.528Z,72.43
2018-12-11T08:38:38.956Z,72.60
2018-12-11T08:41:07.343Z,73.78
2018-12-11T08:43:35.800Z,72.43
2018-12-11T08:46:05.831Z,72.86
2018-12-11T08:48:34.208Z,73.33
2018-12-11T08:51:05.659Z,72.82
2018-12-11T08:53:34.041Z,72.34
2018-12-11T08:56:04.566Z,71.45
2018-12-11T08:58:33.137Z,72.04
2018-12-11T09:01:03.387Z,72.12
2018-12-11T09:03:31.767Z,72.14
2018-12-11T09:06:00.652Z,71.75
2018-12-11T09:08:29.024Z,71.64
2018-12-11T09:10:57.404Z,70.98
2018-12-11T09:13:25.820Z,71.60
2018-12-11T09:15:54.213Z,70.91
2018-12-11T09:18:22.967Z,71.58
2018-12-11T09:20:51.352Z,71.32
2018-12-11T09:23:19.760Z,71.08
2018-12-11T09:25:48.132Z,71.05
2018-12-11T09:28:16.549Z,71.25
2018-12-11T09:30:44.936Z,70.01
2018-12-11T09:33:13.368Z,70.94
2018-12-11T09:35:41.744Z,70.73
2018-12-11T09:38:10.141Z,70.86
2018-12-11T09:40:38.540Z,70.27
2018-12-11T09:43:06.935Z,70.17
2018-12-11T09:45:35.475Z,70.11
2018-12-11T09:48:05.070Z,70.11
2018-12-11T09:50:33.459Z,70.00
2018-12-11T09:53:03.707Z,69.21
2018-12-11T09:55:32.150Z,69.24
2018-12-11T09:58:00.572Z,69.45
2018-12-11T10:00:28.963Z,70.00
2018-12-11T10:02:57.372Z,69.14
2018-12-11T10:05:25.770Z,69.24
2018-12-11T10:07:54.219Z,68.87
2018-12-11T10:10:22.604Z,69.19
2018-12-11T10:12:50.994Z,68.82
2018-12-11T10:15:19.416Z,68.76
2018-12-11T10:17:47.800Z,68.59
2018-12-11T10:20:16.540Z,68.76
2018-12-11T10:22:44.929Z,68.83
2018-12-11T10:25:13.445Z,67.92
2018-12-11T10:27:41.827Z,68.16
2018-12-11T10:30:10.880Z,68.38
2018-12-11T10:32:39.307Z,69.04
2018-12-11T10:35:08.160Z,68.65
2018-12-11T10:37:36.609Z,69.01
2018-12-11T10:40:07.153Z,69.35
2018-12-11T10:42:35.612Z,69.15
2018-12-11T10:45:05.756Z,68.76
2018-12-11T10:47:34.324Z,68.44
2018-12-11T10:50:06.720Z,68.53
2018-12-11T10:52:35.463Z,68.47
2018-12-11T10:55:05.138Z,67.89
2018-12-11T10:57:33.693Z,67.70
2018-12-11T11:00:05.912Z,67.64
2018-12-11T11:02:36.324Z,68.70
2018-12-11T11:05:05.408Z,68.74
2018-12-11T11:07:33.808Z,68.57
2018-12-11T11:10:07.414Z,69.15
2018-12-11T11:12:35.800Z,69.46
2018-12-11T11:15:05.608Z,68.61
2018-12-11T11:17:33.995Z,69.14
2018-12-11T11:20:04.604Z,68.47
2018-12-11T11:22:32.975Z,69.07
2018-12-11T11:25:03.641Z,68.96
2018-12-11T11:27:32.103Z,69.36
2018-12-11T11:30:00.580Z,68.87
2018-12-11T11:32:29.144Z,69.46
2018-12-11T11:34:57.520Z,70.77
2018-12-11T11:37:25.948Z,73.73
2018-12-11T11:39:54.335Z,75.03
2018-12-11T11:42:22.940Z,75.29
2018-12-11T11:44:51.979Z,75.28
2018-12-11T11:47:20.392Z,76.21
2018-12-11T11:49:48.828Z,76.36
2018-12-11T11:52:17.295Z,75.48
2018-12-11T11:54:46.123Z,74.49
2018-12-11T11:57:14.584Z,73.45
2018-12-11T11:59:43.631Z,73.79
2018-12-11T12:02:12.058Z,73.79
2018-12-11T12:04:40.446Z,73.16
2018-12-11T12:07:09.135Z,72.28
2018-12-11T12:09:40.794Z,71.22
2018-12-11T12:12:09.211Z,71.90
2018-12-11T12:14:37.640Z,71.66
2018-12-11T12:17:06.166Z,71.41
2018-12-11T12:19:34.599Z,71.13
2018-12-11T12:22:05.280Z,70.22
2018-12-11T12:24:33.729Z,69.93
2018-12-11T12:27:04.348Z,69.64
2018-12-11T12:29:32.772Z,69.87
2018-12-11T12:32:04.391Z,70.12
2018-12-11T12:34:32.812Z,70.71
2018-12-11T12:37:04.325Z,71.30
2018-12-11T12:39:32.750Z,72.34
2018-12-11T12:44:35.023Z,75.48
2018-12-11T12:47:06.580Z,76.15
2018-12-11T12:49:36.951Z,76.94
2018-12-11T12:52:06.719Z,76.31
2018-12-11T12:54:35.100Z,76.42
2018-12-11T12:57:07.213Z,75.87
2018-12-11T12:59:35.609Z,75.75
2018-12-11T13:02:05.272Z,76.12
2018-12-11T13:04:39.934Z,75.67
2018-12-11T13:07:08.466Z,75.35
2018-12-11T13:09:36.900Z,75.30
2018-12-11T13:12:08.975Z,74.30
2018-12-11T13:14:37.396Z,74.24
2018-12-11T13:17:06.504Z,74.78
2018-12-11T13:19:35.463Z,74.40
2018-12-11T13:22:07.479Z,73.80
2018-12-11T13:24:35.971Z,74.07
2018-12-11T13:27:08.079Z,73.27
2018-12-11T13:29:38.945Z,72.71
2018-12-11T13:32:07.381Z,72.75
2018-12-11T13:34:36.056Z,73.40
2018-12-11T13:37:05.827Z,73.33
2018-12-11T13:39:34.283Z,73.19
2018-12-11T13:42:05.270Z,73.15
2018-12-11T13:44:33.865Z,72.90
2018-12-11T13:47:04.744Z,73.41
2018-12-11T13:49:33.179Z,73.66
2018-12-11T13:52:03.498Z,73.67
2018-12-11T13:54:32.187Z,73.50
2018-12-11T13:57:00.812Z,73.50
2018-12-11T13:59:29.445Z,73.57
2018-12-11T14:01:57.944Z,73.51
2018-12-11T14:04:26.403Z,73.38
2018-12-11T14:06:55.195Z,73.73
2018-12-11T14:09:28.712Z,73.85
2018-12-11T14:11:57.257Z,73.73
2018-12-11T14:14:25.643Z,73.56
2018-12-11T14:16:54.324Z,73.37
2018-12-11T14:19:23.024Z,73.62
2018-12-11T14:21:51.460Z,73.60
2018-12-11T14:24:20.292Z,73.33
2018-12-11T14:26:49.248Z,73.79
2018-12-11T14:29:18.056Z,72.04
2018-12-11T14:31:46.459Z,72.50
2018-12-11T14:34:14.833Z,72.24
2018-12-11T14:36:43.619Z,72.28
2018-12-11T14:39:15.067Z,72.37
2018-12-11T14:41:43.501Z,72.51
2018-12-11T14:44:12.000Z,72.44
2018-12-11T14:46:40.524Z,72.60
2018-12-11T14:49:08.916Z,72.62
2018-12-11T14:51:37.749Z,72.14
2018-12-11T14:54:06.224Z,71.99
2018-12-11T14:56:34.665Z,72.84
2018-12-11T14:59:05.408Z,73.57
2018-12-11T15:01:33.865Z,73.78
2018-12-11T15:04:04.549Z,73.74
2018-12-11T15:06:33.015Z,73.97
2018-12-11T15:09:06.632Z,73.90
2018-12-11T15:11:35.179Z,73.46
2018-12-11T15:14:06.376Z,73.40
2018-12-11T15:16:35.120Z,73.05
2018-12-11T15:19:05.088Z,73.21
2018-12-11T15:21:33.463Z,73.08
2018-12-11T15:24:05.351Z,72.75
2018-12-11T15:26:33.747Z,72.98
2018-12-11T15:29:05.268Z,73.33
2018-12-11T15:31:33.653Z,73.05
2018-12-11T15:34:04.383Z,73.50
2018-12-11T15:36:32.802Z,73.05
2018-12-11T15:39:03.497Z,72.80
2018-12-11T15:41:31.884Z,72.74
2018-12-11T15:44:00.332Z,73.02
2018-12-11T15:46:28.757Z,73.14
2018-12-11T15:48:57.148Z,73.14
2018-12-11T15:51:25.739Z,73.35
2018-12-11T15:53:54.143Z,73.44
2018-12-11T15:56:22.587Z,74.13
2018-12-11T15:58:50.975Z,74.60
2018-12-11T16:01:19.420Z,75.06
2018-12-11T16:03:47.796Z,74.82
2018-12-11T16:06:16.251Z,74.80
2018-12-11T16:08:44.630Z,74.62
2018-12-11T16:11:13.075Z,75.01
2018-12-11T16:13:41.468Z,74.58
2018-12-11T16:16:09.909Z,74.34
2018-12-11T16:18:38.306Z,74.39
2018-12-11T16:21:06.779Z,74.79
2018-12-11T16:23:36.209Z,74.06
2018-12-11T16:26:05.089Z,73.98
2018-12-11T16:28:33.516Z,74.27
2018-12-11T16:31:03.647Z,73.06
2018-12-11T16:33:32.083Z,73.79
2018-12-11T16:36:00.459Z,72.85
2018-12-11T16:38:28.884Z,73.78
2018-12-11T16:40:57.264Z,73.77
2018-12-11T16:43:26.028Z,74.05
2018-12-11T16:45:54.423Z,73.73
2018-12-11T16:48:23.104Z,73.92
2018-12-11T16:50:51.488Z,73.57
2018-12-11T16:53:19.891Z,74.51
2018-12-11T16:55:48.343Z,73.97
2018-12-11T16:58:16.740Z,73.63
2018-12-11T17:00:45.171Z,73.29
2018-12-11T17:03:13.945Z,73.59
2018-12-11T17:05:42.481Z,72.94
2018-12-11T17:08:10.890Z,72.95
2018-12-11T17:10:40.036Z,73.22
2018-12-11T17:13:08.810Z,73.54
2018-12-11T17:15:38.330Z,73.27
2018-12-11T17:18:06.988Z,73.80
2018-12-11T17:20:36.880Z,73.05
2018-12-11T17:23:05.437Z,73.32
2018-12-11T17:25:33.965Z,73.24
2018-12-11T17:28:07.024Z,73.15
2018-12-11T17:30:35.843Z,73.96
2018-12-11T17:33:05.168Z,73.03
2018-12-11T17:35:33.635Z,73.52
2018-12-11T17:38:05.382Z,73.18
2018-12-11T17:40:33.823Z,73.28
2018-12-11T17:43:04.749Z,73.16
2018-12-11T17:45:33.360Z,73.19
2018-12-11T17:48:05.389Z,73.07
2018-12-11T17:50:34.160Z,73.06
2018-12-11T17:53:04.086Z,73.74
2018-12-11T17:55:33.476Z,72.83
2018-12-11T17:58:03.679Z,73.32
2018-12-11T18:00:32.212Z,73.11
2018-12-11T18:03:00.723Z,73.44
2018-12-11T18:05:29.183Z,74.22
2018-12-11T18:07:57.673Z,73.48
2018-12-11T18:10:26.532Z,74.13
2018-12-11T18:12:54.980Z,73.46
2018-12-11T18:15:23.408Z,74.25
2018-12-11T18:17:51.829Z,74.47
2018-12-11T18:20:20.292Z,75.06
2018-12-11T18:22:48.702Z,74.24
2018-12-11T18:25:17.098Z,74.72
2018-12-11T18:27:45.552Z,74.24
2018-12-11T18:30:13.973Z,74.34
2018-12-11T18:32:42.412Z,73.87
2018-12-11T18:35:13.528Z,74.85
2018-12-11T18:37:41.956Z,73.74
2018-12-11T18:40:10.961Z,74.19
2018-12-11T18:42:39.396Z,74.62
2018-12-11T18:45:08.796Z,73.57
2018-12-11T18:47:37.277Z,74.10
2018-12-11T18:50:06.433Z,73.52
2018-12-11T18:52:34.862Z,73.50
2018-12-11T18:55:05.480Z,74.06
2018-12-11T18:57:34.015Z,73.21
2018-12-11T19:00:04.517Z,73.78
2018-12-11T19:02:32.933Z,73.53
2018-12-11T19:05:03.896Z,73.97
2018-12-11T19:07:32.312Z,73.55
2018-12-11T19:10:00.716Z,73.57
2018-12-11T19:12:29.158Z,73.70
2018-12-11T19:14:57.568Z,73.86
2018-12-11T19:17:25.970Z,74.42
2018-12-11T19:19:54.400Z,74.20
2018-12-11T19:22:22.859Z,74.14
2018-12-11T19:24:53.946Z,73.59
2018-12-11T19:27:22.341Z,73.58
2018-12-11T19:29:50.775Z,73.80
2018-12-11T19:32:19.786Z,73.44
2018-12-11T19:34:48.166Z,73.51
2018-12-11T19:37:16.643Z,73.60
2018-12-11T19:39:45.275Z,74.01
2018-12-11T19:42:13.676Z,73.69
2018-12-11T19:44:42.111Z,73.61
2018-12-11T19:47:10.547Z,73.30
2018-12-11T19:49:39.000Z,72.85
2018-12-11T19:52:07.595Z,72.97
2018-12-11T19:54:36.060Z,73.29
2018-12-11T19:57:05.784Z,72.74
2018-12-11T19:59:34.403Z,73.16
2018-12-11T20:02:05.392Z,73.12
2018-12-11T20:04:34.426Z,73.20
2018-12-11T20:07:05.919Z,73.16
2018-12-11T20:09:37.162Z,73.46
2018-12-11T20:12:05.900Z,72.83
2018-12-11T20:14:34.360Z,73.28
2018-12-11T20:17:05.611Z,73.59
2018-12-11T20:19:34.044Z,73.55
2018-12-11T20:22:04.987Z,73.50
2018-12-11T20:24:33.719Z,73.40
2018-12-11T20:27:05.262Z,73.27
2018-12-11T20:29:33.956Z,72.83
2018-12-11T20:32:05.394Z,72.26
2018-12-11T20:34:34.743Z,72.12
2018-12-11T20:37:07.037Z,72.58
2018-12-11T20:39:35.447Z,72.37
2018-12-11T20:42:07.510Z,72.30
2018-12-11T20:44:36.133Z,72.37
2018-12-11T20:47:05.295Z,72.32
2018-12-11T20:49:33.718Z,72.23
2018-12-11T20:52:05.321Z,72.22
2018-12-11T20:54:33.809Z,72.27
2018-12-11T20:57:04.636Z,72.44
2018-12-11T20:59:33.061Z,71.93
2018-12-11T21:02:03.714Z,71.86
2018-12-11T21:04:32.358Z,71.69
2018-12-11T21:07:00.769Z,71.59
2018-12-11T21:09:29.165Z,71.69
2018-12-11T21:11:57.608Z,71.38
2018-12-11T21:14:26.140Z,71.36
2018-12-11T21:16:55.210Z,70.71
2018-12-11T21:19:23.639Z,71.23
2018-12-11T21:21:52.165Z,71.38
2018-12-11T21:24:20.973Z,71.32
2018-12-11T21:26:49.860Z,70.80
2018-12-11T21:29:18.300Z,71.59
2018-12-11T21:31:46.700Z,70.70
2018-12-11T21:34:15.255Z,71.53
2018-12-11T21:36:43.655Z,71.54
2018-12-11T21:39:12.152Z,71.33
2018-12-11T21:41:40.632Z,70.91
2018-12-11T21:44:09.740Z,70.76
2018-12-11T21:46:38.331Z,70.22
2018-12-11T21:49:07.496Z,70.74
2018-12-11T21:51:36.229Z,70.63
2018-12-11T21:54:07.609Z,70.01
2018-12-11T21:56:36.218Z,70.53
2018-12-11T21:59:06.468Z,70.30
2018-12-11T22:01:34.975Z,70.73
2018-12-11T22:04:10.248Z,70.19
2018-12-11T22:06:39.381Z,69.52
2018-12-11T22:09:07.900Z,70.31
2018-12-11T22:11:36.801Z,70.59
2018-12-11T22:14:06.015Z,70.20
2018-12-11T22:16:34.432Z,70.68
2018-12-11T22:19:06.003Z,70.08
2018-12-11T22:21:34.648Z,70.34
2018-12-11T22:24:05.224Z,71.27
2018-12-11T22:26:33.639Z,70.11
2018-12-11T22:29:04.688Z,70.64
2018-12-11T22:31:34.109Z,70.18
2018-12-11T22:34:06.005Z,70.70
2018-12-11T22:36:34.412Z,70.62
2018-12-11T22:39:07.370Z,70.69
2018-12-11T22:41:36.161Z,70.19
2018-12-11T22:44:05.871Z,70.43
2018-12-11T22:46:34.615Z,70.56
2018-12-11T22:49:05.912Z,70.65
2018-12-11T22:51:35.076Z,70.91
2018-12-11T22:54:06.855Z,70.73
2018-12-11T22:56:35.277Z,70.34
2018-12-11T22:59:05.064Z,70.23
2018-12-11T23:01:33.440Z,69.84
2018-12-11T23:04:03.706Z,69.38
2018-12-11T23:06:32.103Z,69.92
2018-12-11T23:09:00.615Z,69.62
2018-12-11T23:11:29.019Z,70.53
2018-12-11T23:13:57.400Z,70.33
2018-12-11T23:16:25.819Z,69.76
2018-12-11T23:18:54.199Z,69.43
2018-12-11T23:21:22.614Z,69.76
2018-12-11T23:23:50.995Z,69.69
2018-12-11T23:26:19.411Z,69.96
2018-12-11T23:28:47.800Z,70.03
2018-12-11T23:31:16.220Z,70.15
2018-12-11T23:33:44.591Z,69.69
2018-12-11T23:36:13.007Z,70.48
2018-12-11T23:38:41.380Z,70.49
2018-12-11T23:41:09.788Z,70.12
2018-12-11T23:43:38.159Z,70.61
2018-12-11T23:46:06.570Z,70.73
2018-12-11T23:48:34.986Z,70.83
2018-12-11T23:51:05.838Z,70.43
2018-12-11T23:53:34.263Z,70.46
2018-12-11T23:56:06.056Z,70.44
2018-12-11T23:58:34.451Z,70.02
